sensor_id;sensor_type;location;lat;lon;timestamp;P1;durP1;ratioP1;P2;durP2;ratioP2
23496;SDS011;11925;48.122;11.560;2022-11-03T00:01:33;7.53;;;4.22;;
23496;SDS011;11925;48.122;11.560;2022-11-03T00:04:03;7.20;;;4.00;;
23496;SDS011;11925;48.122;11.560;2022-11-03T00:06:34;7.70;;;3.83;;
23496;SDS011;11925;48.122;11.560;2022-11-03T00:09:03;7.97;;;4.22;;
23496;SDS011;11925;48.122;11.560;2022-11-03T00:11:33;8.35;;;4.07;;
23496;SDS011;11925;48.122;11.560;2022-11-03T00:14:02;7.20;;;3.60;;
23496;SDS011;11925;48.122;11.560;2022-11-03T00:16:31;8.25;;;3.95;;
23496;SDS011;11925;48.122;11.560;2022-11-03T00:19:00;6.97;;;3.90;;
23496;SDS011;11925;48.122;11.560;2022-11-03T00:21:28;7.55;;;3.92;;
23496;SDS011;11925;48.122;11.560;2022-11-03T00:23:58;7.90;;;4.05;;
23496;SDS011;11925;48.122;11.560;2022-11-03T00:26:28;6.82;;;3.90;;
23496;SDS011;11925;48.122;11.560;2022-11-03T00:28:59;8.63;;;4.43;;
23496;SDS011;11925;48.122;11.560;2022-11-03T00:31:28;7.72;;;3.53;;
23496;SDS011;11925;48.122;11.560;2022-11-03T00:33:58;7.18;;;4.25;;
23496;SDS011;11925;48.122;11.560;2022-11-03T00:36:27;7.22;;;3.53;;
23496;SDS011;11925;48.122;11.560;2022-11-03T00:38:56;7.85;;;3.42;;
23496;SDS011;11925;48.122;11.560;2022-11-03T00:41:27;6.93;;;3.35;;
23496;SDS011;11925;48.122;11.560;2022-11-03T00:43:55;8.75;;;3.72;;
23496;SDS011;11925;48.122;11.560;2022-11-03T00:46:24;6.72;;;3.63;;
23496;SDS011;11925;48.122;11.560;2022-11-03T00:48:53;9.07;;;3.60;;
23496;SDS011;11925;48.122;11.560;2022-11-03T00:51:23;6.35;;;3.95;;
23496;SDS011;11925;48.122;11.560;2022-11-03T00:53:53;6.85;;;3.70;;
23496;SDS011;11925;48.122;11.560;2022-11-03T00:56:24;6.97;;;3.72;;
23496;SDS011;11925;48.122;11.560;2022-11-03T01:01:24;8.20;;;3.80;;
23496;SDS011;11925;48.122;11.560;2022-11-03T01:03:54;8.20;;;3.40;;
23496;SDS011;11925;48.122;11.560;2022-11-03T01:06:42;7.75;;;3.75;;
23496;SDS011;11925;48.122;11.560;2022-11-03T01:09:19;6.82;;;3.08;;
23496;SDS011;11925;48.122;11.560;2022-11-03T01:11:52;7.32;;;4.22;;
23496;SDS011;11925;48.122;11.560;2022-11-03T01:14:24;8.23;;;3.28;;
23496;SDS011;11925;48.122;11.560;2022-11-03T01:16:54;7.78;;;3.50;;
23496;SDS011;11925;48.122;11.560;2022-11-03T01:19:22;9.80;;;3.70;;
23496;SDS011;11925;48.122;11.560;2022-11-03T01:21:51;9.15;;;3.83;;
23496;SDS011;11925;48.122;11.560;2022-11-03T01:24:19;7.18;;;3.65;;
23496;SDS011;11925;48.122;11.560;2022-11-03T01:26:48;6.57;;;3.47;;
23496;SDS011;11925;48.122;11.560;2022-11-03T01:29:18;8.82;;;3.80;;
23496;SDS011;11925;48.122;11.560;2022-11-03T01:31:46;7.45;;;3.55;;
23496;SDS011;11925;48.122;11.560;2022-11-03T01:34:16;7.78;;;3.85;;
23496;SDS011;11925;48.122;11.560;2022-11-03T01:36:45;8.23;;;3.58;;
23496;SDS011;11925;48.122;11.560;2022-11-03T01:39:14;8.20;;;3.53;;
23496;SDS011;11925;48.122;11.560;2022-11-03T01:41:44;5.60;;;3.60;;
23496;SDS011;11925;48.122;11.560;2022-11-03T01:44:32;7.88;;;3.45;;
23496;SDS011;11925;48.122;11.560;2022-11-03T01:47:03;7.45;;;3.47;;
23496;SDS011;11925;48.122;11.560;2022-11-03T01:49:40;6.25;;;3.50;;
23496;SDS011;11925;48.122;11.560;2022-11-03T01:52:13;8.50;;;3.55;;
23496;SDS011;11925;48.122;11.560;2022-11-03T01:54:45;7.35;;;3.35;;
23496;SDS011;11925;48.122;11.560;2022-11-03T01:57:19;11.35;;;3.83;;
23496;SDS011;11925;48.122;11.560;2022-11-03T01:59:53;7.97;;;3.65;;
23496;SDS011;11925;48.122;11.560;2022-11-03T02:02:24;7.10;;;3.55;;
23496;SDS011;11925;48.122;11.560;2022-11-03T02:04:54;6.55;;;3.35;;
23496;SDS011;11925;48.122;11.560;2022-11-03T02:07:27;6.95;;;3.47;;
23496;SDS011;11925;48.122;11.560;2022-11-03T02:10:00;7.43;;;3.67;;
23496;SDS011;11925;48.122;11.560;2022-11-03T02:12:29;6.07;;;3.33;;
23496;SDS011;11925;48.122;11.560;2022-11-03T02:15:00;7.45;;;3.25;;
23496;SDS011;11925;48.122;11.560;2022-11-03T02:17:32;5.80;;;3.15;;
23496;SDS011;11925;48.122;11.560;2022-11-03T02:20:04;6.25;;;3.50;;
23496;SDS011;11925;48.122;11.560;2022-11-03T02:22:42;9.25;;;3.58;;
23496;SDS011;11925;48.122;11.560;2022-11-03T02:25:42;6.53;;;3.45;;
23496;SDS011;11925;48.122;11.560;2022-11-03T02:28:12;6.60;;;3.40;;
23496;SDS011;11925;48.122;11.560;2022-11-03T02:30:44;5.05;;;3.42;;
23496;SDS011;11925;48.122;11.560;2022-11-03T02:33:21;6.10;;;3.17;;
23496;SDS011;11925;48.122;11.560;2022-11-03T02:36:05;6.72;;;3.17;;
23496;SDS011;11925;48.122;11.560;2022-11-03T02:38:41;6.05;;;3.13;;
23496;SDS011;11925;48.122;11.560;2022-11-03T02:41:15;8.98;;;3.22;;
23496;SDS011;11925;48.122;11.560;2022-11-03T02:43:45;6.50;;;3.03;;
23496;SDS011;11925;48.122;11.560;2022-11-03T02:46:15;6.13;;;3.15;;
23496;SDS011;11925;48.122;11.560;2022-11-03T02:48:44;4.80;;;3.10;;
23496;SDS011;11925;48.122;11.560;2022-11-03T02:51:14;8.38;;;3.38;;
23496;SDS011;11925;48.122;11.560;2022-11-03T02:53:43;6.45;;;3.28;;
23496;SDS011;11925;48.122;11.560;2022-11-03T02:56:18;5.82;;;3.22;;
23496;SDS011;11925;48.122;11.560;2022-11-03T02:58:49;6.32;;;3.50;;
23496;SDS011;11925;48.122;11.560;2022-11-03T03:01:24;5.90;;;2.88;;
23496;SDS011;11925;48.122;11.560;2022-11-03T03:04:00;7.07;;;3.72;;
23496;SDS011;11925;48.122;11.560;2022-11-03T03:06:33;6.80;;;3.30;;
23496;SDS011;11925;48.122;11.560;2022-11-03T03:09:06;6.72;;;3.65;;
23496;SDS011;11925;48.122;11.560;2022-11-03T03:11:40;5.50;;;3.10;;
23496;SDS011;11925;48.122;11.560;2022-11-03T03:14:11;6.32;;;3.67;;
23496;SDS011;11925;48.122;11.560;2022-11-03T03:16:49;6.13;;;3.28;;
23496;SDS011;11925;48.122;11.560;2022-11-03T03:19:24;6.15;;;3.35;;
23496;SDS011;11925;48.122;11.560;2022-11-03T03:21:59;6.40;;;3.35;;
23496;SDS011;11925;48.122;11.560;2022-11-03T03:24:34;6.07;;;3.17;;
23496;SDS011;11925;48.122;11.560;2022-11-03T03:27:09;7.57;;;3.85;;
23496;SDS011;11925;48.122;11.560;2022-11-03T03:29:39;6.55;;;3.30;;
23496;SDS011;11925;48.122;11.560;2022-11-03T03:32:11;5.88;;;3.25;;
23496;SDS011;11925;48.122;11.560;2022-11-03T03:34:45;4.97;;;3.15;;
23496;SDS011;11925;48.122;11.560;2022-11-03T03:37:16;5.18;;;3.17;;
23496;SDS011;11925;48.122;11.560;2022-11-03T03:39:47;6.10;;;3.40;;
23496;SDS011;11925;48.122;11.560;2022-11-03T03:42:21;6.25;;;3.17;;
23496;SDS011;11925;48.122;11.560;2022-11-03T03:44:54;6.90;;;3.42;;
23496;SDS011;11925;48.122;11.560;2022-11-03T03:47:26;6.85;;;3.58;;
23496;SDS011;11925;48.122;11.560;2022-11-03T03:49:56;7.22;;;3.63;;
23496;SDS011;11925;48.122;11.560;2022-11-03T03:52:25;5.93;;;3.97;;
23496;SDS011;11925;48.122;11.560;2022-11-03T03:54:54;7.00;;;3.38;;
23496;SDS011;11925;48.122;11.560;2022-11-03T03:57:24;5.22;;;3.30;;
23496;SDS011;11925;48.122;11.560;2022-11-03T03:59:54;6.20;;;3.35;;
23496;SDS011;11925;48.122;11.560;2022-11-03T04:02:23;4.80;;;3.40;;
23496;SDS011;11925;48.122;11.560;2022-11-03T04:04:51;5.63;;;3.25;;
23496;SDS011;11925;48.122;11.560;2022-11-03T04:07:19;6.50;;;3.15;;
23496;SDS011;11925;48.122;11.560;2022-11-03T04:10:09;5.53;;;3.33;;
23496;SDS011;11925;48.122;11.560;2022-11-03T04:12:40;4.28;;;2.85;;
23496;SDS011;11925;48.122;11.560;2022-11-03T04:15:26;4.82;;;3.15;;
23496;SDS011;11925;48.122;11.560;2022-11-03T04:18:12;5.90;;;3.40;;
23496;SDS011;11925;48.122;11.560;2022-11-03T04:21:00;6.50;;;3.63;;
23496;SDS011;11925;48.122;11.560;2022-11-03T04:23:46;7.53;;;3.35;;
23496;SDS011;11925;48.122;11.560;2022-11-03T04:26:15;4.82;;;3.47;;
23496;SDS011;11925;48.122;11.560;2022-11-03T04:28:45;5.28;;;3.13;;
23496;SDS011;11925;48.122;11.560;2022-11-03T04:31:14;6.10;;;3.40;;
23496;SDS011;11925;48.122;11.560;2022-11-03T04:33:44;4.65;;;3.15;;
23496;SDS011;11925;48.122;11.560;2022-11-03T04:36:14;5.30;;;3.35;;
23496;SDS011;11925;48.122;11.560;2022-11-03T04:38:45;6.57;;;3.92;;
23496;SDS011;11925;48.122;11.560;2022-11-03T04:41:14;5.30;;;3.53;;
23496;SDS011;11925;48.122;11.560;2022-11-03T04:43:44;5.10;;;3.60;;
23496;SDS011;11925;48.122;11.560;2022-11-03T04:46:16;5.93;;;3.20;;
23496;SDS011;11925;48.122;11.560;2022-11-03T04:48:51;6.93;;;4.18;;
23496;SDS011;11925;48.122;11.560;2022-11-03T04:51:21;6.88;;;3.63;;
23496;SDS011;11925;48.122;11.560;2022-11-03T04:53:51;5.63;;;3.88;;
23496;SDS011;11925;48.122;11.560;2022-11-03T04:56:22;6.68;;;4.47;;
23496;SDS011;11925;48.122;11.560;2022-11-03T04:58:52;6.30;;;3.80;;
23496;SDS011;11925;48.122;11.560;2022-11-03T05:01:21;6.18;;;4.05;;
23496;SDS011;11925;48.122;11.560;2022-11-03T05:03:51;5.47;;;4.32;;
23496;SDS011;11925;48.122;11.560;2022-11-03T05:06:21;6.60;;;4.55;;
23496;SDS011;11925;48.122;11.560;2022-11-03T05:08:54;6.85;;;3.83;;
23496;SDS011;11925;48.122;11.560;2022-11-03T05:11:27;6.30;;;4.25;;
23496;SDS011;11925;48.122;11.560;2022-11-03T05:13:59;8.27;;;5.07;;
23496;SDS011;11925;48.122;11.560;2022-11-03T05:16:29;6.22;;;4.50;;
23496;SDS011;11925;48.122;11.560;2022-11-03T05:18:59;5.80;;;4.10;;
23496;SDS011;11925;48.122;11.560;2022-11-03T05:21:27;6.90;;;4.63;;
23496;SDS011;11925;48.122;11.560;2022-11-03T05:23:56;7.35;;;4.63;;
23496;SDS011;11925;48.122;11.560;2022-11-03T05:26:31;6.70;;;4.57;;
23496;SDS011;11925;48.122;11.560;2022-11-03T05:29:02;5.53;;;4.77;;
23496;SDS011;11925;48.122;11.560;2022-11-03T05:31:37;4.30;;;3.58;;
23496;SDS011;11925;48.122;11.560;2022-11-03T05:34:13;5.28;;;4.38;;
23496;SDS011;11925;48.122;11.560;2022-11-03T05:36:59;4.87;;;4.10;;
23496;SDS011;11925;48.122;11.560;2022-11-03T05:39:35;5.57;;;4.50;;
23496;SDS011;11925;48.122;11.560;2022-11-03T05:42:14;4.75;;;4.20;;
23496;SDS011;11925;48.122;11.560;2022-11-03T05:44:48;5.22;;;4.07;;
23496;SDS011;11925;48.122;11.560;2022-11-03T05:47:19;5.28;;;4.38;;
23496;SDS011;11925;48.122;11.560;2022-11-03T05:49:49;5.03;;;4.53;;
23496;SDS011;11925;48.122;11.560;2022-11-03T05:52:21;9.82;;;6.85;;
23496;SDS011;11925;48.122;11.560;2022-11-03T05:54:53;7.55;;;5.95;;
23496;SDS011;11925;48.122;11.560;2022-11-03T05:57:26;7.65;;;5.40;;
23496;SDS011;11925;48.122;11.560;2022-11-03T05:59:58;7.80;;;5.40;;
23496;SDS011;11925;48.122;11.560;2022-11-03T06:02:31;7.55;;;5.10;;
23496;SDS011;11925;48.122;11.560;2022-11-03T06:05:08;6.43;;;5.20;;
23496;SDS011;11925;48.122;11.560;2022-11-03T06:07:41;10.00;;;5.57;;
23496;SDS011;11925;48.122;11.560;2022-11-03T06:10:20;9.68;;;5.18;;
23496;SDS011;11925;48.122;11.560;2022-11-03T06:12:55;8.70;;;4.90;;
23496;SDS011;11925;48.122;11.560;2022-11-03T06:15:31;6.63;;;5.05;;
23496;SDS011;11925;48.122;11.560;2022-11-03T06:18:01;6.50;;;4.90;;
23496;SDS011;11925;48.122;11.560;2022-11-03T06:20:40;5.78;;;4.50;;
23496;SDS011;11925;48.122;11.560;2022-11-03T06:23:10;5.68;;;4.50;;
23496;SDS011;11925;48.122;11.560;2022-11-03T06:25:41;5.85;;;4.90;;
23496;SDS011;11925;48.122;11.560;2022-11-03T06:28:10;6.00;;;4.80;;
23496;SDS011;11925;48.122;11.560;2022-11-03T06:30:45;7.82;;;5.07;;
23496;SDS011;11925;48.122;11.560;2022-11-03T06:33:18;5.18;;;4.68;;
23496;SDS011;11925;48.122;11.560;2022-11-03T06:35:50;5.30;;;4.35;;
23496;SDS011;11925;48.122;11.560;2022-11-03T06:38:22;6.10;;;4.45;;
23496;SDS011;11925;48.122;11.560;2022-11-03T06:40:52;5.07;;;4.07;;
23496;SDS011;11925;48.122;11.560;2022-11-03T06:43:21;4.20;;;3.58;;
23496;SDS011;11925;48.122;11.560;2022-11-03T06:45:54;5.95;;;3.80;;
23496;SDS011;11925;48.122;11.560;2022-11-03T06:48:25;4.68;;;3.80;;
23496;SDS011;11925;48.122;11.560;2022-11-03T06:50:56;4.57;;;3.97;;
23496;SDS011;11925;48.122;11.560;2022-11-03T06:53:26;4.85;;;4.10;;
23496;SDS011;11925;48.122;11.560;2022-11-03T06:55:57;4.65;;;3.95;;
23496;SDS011;11925;48.122;11.560;2022-11-03T06:58:27;4.70;;;4.22;;
23496;SDS011;11925;48.122;11.560;2022-11-03T07:01:01;4.45;;;4.05;;
23496;SDS011;11925;48.122;11.560;2022-11-03T07:03:36;5.00;;;4.13;;
23496;SDS011;11925;48.122;11.560;2022-11-03T07:06:11;5.05;;;3.75;;
23496;SDS011;11925;48.122;11.560;2022-11-03T07:08:44;4.10;;;3.70;;
23496;SDS011;11925;48.122;11.560;2022-11-03T07:11:15;4.15;;;3.53;;
23496;SDS011;11925;48.122;11.560;2022-11-03T07:13:45;4.95;;;3.88;;
23496;SDS011;11925;48.122;11.560;2022-11-03T07:16:20;5.15;;;4.13;;
23496;SDS011;11925;48.122;11.560;2022-11-03T07:18:54;5.10;;;4.03;;
23496;SDS011;11925;48.122;11.560;2022-11-03T07:21:24;6.00;;;4.25;;
23496;SDS011;11925;48.122;11.560;2022-11-03T07:23:59;6.00;;;4.35;;
23496;SDS011;11925;48.122;11.560;2022-11-03T07:26:31;5.55;;;4.40;;
23496;SDS011;11925;48.122;11.560;2022-11-03T07:29:00;6.72;;;4.47;;
23496;SDS011;11925;48.122;11.560;2022-11-03T07:31:30;5.03;;;3.80;;
23496;SDS011;11925;48.122;11.560;2022-11-03T07:33:58;7.53;;;4.53;;
23496;SDS011;11925;48.122;11.560;2022-11-03T07:36:27;6.20;;;4.90;;
23496;SDS011;11925;48.122;11.560;2022-11-03T07:38:58;5.53;;;4.55;;
23496;SDS011;11925;48.122;11.560;2022-11-03T07:41:30;6.53;;;4.70;;
23496;SDS011;11925;48.122;11.560;2022-11-03T07:46:28;5.60;;;4.35;;
23496;SDS011;11925;48.122;11.560;2022-11-03T07:48:59;5.63;;;4.88;;
23496;SDS011;11925;48.122;11.560;2022-11-03T07:51:30;5.63;;;4.23;;
23496;SDS011;11925;48.122;11.560;2022-11-03T07:54:01;4.80;;;4.15;;
23496;SDS011;11925;48.122;11.560;2022-11-03T07:56:37;4.78;;;3.80;;
23496;SDS011;11925;48.122;11.560;2022-11-03T07:59:10;5.60;;;4.57;;
23496;SDS011;11925;48.122;11.560;2022-11-03T08:01:44;6.25;;;3.80;;
23496;SDS011;11925;48.122;11.560;2022-11-03T08:04:16;6.28;;;4.22;;
23496;SDS011;11925;48.122;11.560;2022-11-03T08:06:47;5.93;;;4.10;;
23496;SDS011;11925;48.122;11.560;2022-11-03T08:09:16;4.95;;;3.85;;
23496;SDS011;11925;48.122;11.560;2022-11-03T08:11:45;5.68;;;4.13;;
23496;SDS011;11925;48.122;11.560;2022-11-03T08:14:14;6.15;;;3.90;;
23496;SDS011;11925;48.122;11.560;2022-11-03T08:16:43;5.00;;;3.85;;
23496;SDS011;11925;48.122;11.560;2022-11-03T08:19:12;4.82;;;4.28;;
23496;SDS011;11925;48.122;11.560;2022-11-03T08:21:40;5.88;;;4.40;;
23496;SDS011;11925;48.122;11.560;2022-11-03T08:24:08;7.65;;;5.22;;
23496;SDS011;11925;48.122;11.560;2022-11-03T08:26:37;5.93;;;4.68;;
23496;SDS011;11925;48.122;11.560;2022-11-03T08:29:05;6.22;;;4.65;;
23496;SDS011;11925;48.122;11.560;2022-11-03T08:31:34;7.57;;;4.43;;
23496;SDS011;11925;48.122;11.560;2022-11-03T08:34:03;7.63;;;5.28;;
23496;SDS011;11925;48.122;11.560;2022-11-03T08:36:31;6.97;;;5.03;;
23496;SDS011;11925;48.122;11.560;2022-11-03T08:39:00;6.65;;;5.03;;
23496;SDS011;11925;48.122;11.560;2022-11-03T08:41:28;7.63;;;4.82;;
23496;SDS011;11925;48.122;11.560;2022-11-03T08:43:57;6.55;;;4.53;;
23496;SDS011;11925;48.122;11.560;2022-11-03T08:46:25;7.03;;;4.70;;
23496;SDS011;11925;48.122;11.560;2022-11-03T08:48:53;5.88;;;4.55;;
23496;SDS011;11925;48.122;11.560;2022-11-03T08:51:23;6.90;;;4.72;;
23496;SDS011;11925;48.122;11.560;2022-11-03T08:53:52;6.30;;;4.57;;
23496;SDS011;11925;48.122;11.560;2022-11-03T08:56:20;5.75;;;4.32;;
23496;SDS011;11925;48.122;11.560;2022-11-03T08:58:49;6.70;;;4.72;;
23496;SDS011;11925;48.122;11.560;2022-11-03T09:01:17;7.75;;;5.03;;
23496;SDS011;11925;48.122;11.560;2022-11-03T09:03:45;7.22;;;5.28;;
23496;SDS011;11925;48.122;11.560;2022-11-03T09:06:14;6.43;;;5.15;;
23496;SDS011;11925;48.122;11.560;2022-11-03T09:08:43;8.13;;;4.80;;
23496;SDS011;11925;48.122;11.560;2022-11-03T09:11:32;6.22;;;4.30;;
23496;SDS011;11925;48.122;11.560;2022-11-03T09:14:00;7.50;;;4.97;;
23496;SDS011;11925;48.122;11.560;2022-11-03T09:16:29;8.63;;;5.40;;
23496;SDS011;11925;48.122;11.560;2022-11-03T09:18:57;6.38;;;4.95;;
23496;SDS011;11925;48.122;11.560;2022-11-03T09:21:25;7.30;;;4.40;;
23496;SDS011;11925;48.122;11.560;2022-11-03T09:23:55;6.05;;;4.60;;
23496;SDS011;11925;48.122;11.560;2022-11-03T09:26:25;8.18;;;4.90;;
23496;SDS011;11925;48.122;11.560;2022-11-03T09:28:53;7.30;;;4.38;;
23496;SDS011;11925;48.122;11.560;2022-11-03T09:31:22;7.53;;;4.38;;
23496;SDS011;11925;48.122;11.560;2022-11-03T09:33:53;4.93;;;4.05;;
23496;SDS011;11925;48.122;11.560;2022-11-03T09:36:21;7.15;;;4.22;;
23496;SDS011;11925;48.122;11.560;2022-11-03T09:38:50;12.75;;;4.70;;
23496;SDS011;11925;48.122;11.560;2022-11-03T09:41:19;7.65;;;4.47;;
23496;SDS011;11925;48.122;11.560;2022-11-03T09:44:08;7.20;;;4.47;;
23496;SDS011;11925;48.122;11.560;2022-11-03T09:46:38;7.68;;;4.32;;
23496;SDS011;11925;48.122;11.560;2022-11-03T09:49:06;5.30;;;3.80;;
23496;SDS011;11925;48.122;11.560;2022-11-03T09:51:34;7.15;;;4.00;;
23496;SDS011;11925;48.122;11.560;2022-11-03T09:54:03;9.50;;;4.15;;
23496;SDS011;11925;48.122;11.560;2022-11-03T09:56:34;6.03;;;4.03;;
23496;SDS011;11925;48.122;11.560;2022-11-03T09:59:09;7.45;;;4.05;;
23496;SDS011;11925;48.122;11.560;2022-11-03T10:01:42;6.07;;;4.30;;
23496;SDS011;11925;48.122;11.560;2022-11-03T10:04:14;7.45;;;4.28;;
23496;SDS011;11925;48.122;11.560;2022-11-03T10:06:43;7.40;;;3.70;;
23496;SDS011;11925;48.122;11.560;2022-11-03T10:09:13;6.80;;;4.15;;
23496;SDS011;11925;48.122;11.560;2022-11-03T10:11:45;8.13;;;4.10;;
23496;SDS011;11925;48.122;11.560;2022-11-03T10:14:14;5.70;;;3.65;;
23496;SDS011;11925;48.122;11.560;2022-11-03T10:16:46;6.95;;;3.58;;
23496;SDS011;11925;48.122;11.560;2022-11-03T10:19:19;6.45;;;3.83;;
23496;SDS011;11925;48.122;11.560;2022-11-03T10:21:47;5.80;;;3.70;;
23496;SDS011;11925;48.122;11.560;2022-11-03T10:24:17;7.18;;;3.65;;
23496;SDS011;11925;48.122;11.560;2022-11-03T10:26:47;8.25;;;3.38;;
23496;SDS011;11925;48.122;11.560;2022-11-03T10:29:18;7.95;;;3.42;;
23496;SDS011;11925;48.122;11.560;2022-11-03T10:31:49;7.38;;;3.63;;
23496;SDS011;11925;48.122;11.560;2022-11-03T10:34:23;7.30;;;4.07;;
23496;SDS011;11925;48.122;11.560;2022-11-03T10:37:09;7.35;;;3.53;;
23496;SDS011;11925;48.122;11.560;2022-11-03T10:39:43;8.38;;;3.58;;
23496;SDS011;11925;48.122;11.560;2022-11-03T10:42:18;6.63;;;3.65;;
23496;SDS011;11925;48.122;11.560;2022-11-03T10:44:48;5.70;;;3.42;;
23496;SDS011;11925;48.122;11.560;2022-11-03T10:52:20;9.40;;;3.47;;
23496;SDS011;11925;48.122;11.560;2022-11-03T10:54:51;4.70;;;2.90;;
23496;SDS011;11925;48.122;11.560;2022-11-03T10:57:22;5.65;;;3.33;;
23496;SDS011;11925;48.122;11.560;2022-11-03T10:59:51;6.95;;;3.17;;
23496;SDS011;11925;48.122;11.560;2022-11-03T11:02:21;9.20;;;3.40;;
23496;SDS011;11925;48.122;11.560;2022-11-03T11:04:53;6.22;;;2.83;;
23496;SDS011;11925;48.122;11.560;2022-11-03T11:07:29;6.32;;;3.03;;
23496;SDS011;11925;48.122;11.560;2022-11-03T11:10:04;6.07;;;3.25;;
23496;SDS011;11925;48.122;11.560;2022-11-03T11:12:35;8.02;;;3.35;;
23496;SDS011;11925;48.122;11.560;2022-11-03T11:15:39;5.68;;;3.17;;
23496;SDS011;11925;48.122;11.560;2022-11-03T11:18:06;6.93;;;3.10;;
23496;SDS011;11925;48.122;11.560;2022-11-03T11:20:36;5.40;;;3.10;;
23496;SDS011;11925;48.122;11.560;2022-11-03T11:44:49;11.57;;;4.95;;
23496;SDS011;11925;48.122;11.560;2022-11-03T11:47:33;12.10;;;5.28;;
23496;SDS011;11925;48.122;11.560;2022-11-03T11:50:25;8.73;;;5.00;;
23496;SDS011;11925;48.122;11.560;2022-11-03T11:52:59;9.57;;;4.70;;
23496;SDS011;11925;48.122;11.560;2022-11-03T11:55:57;8.43;;;4.70;;
23496;SDS011;11925;48.122;11.560;2022-11-03T11:58:29;10.40;;;4.75;;
23496;SDS011;11925;48.122;11.560;2022-11-03T12:01:03;11.40;;;5.38;;
23496;SDS011;11925;48.122;11.560;2022-11-03T12:03:35;9.05;;;5.40;;
23496;SDS011;11925;48.122;11.560;2022-11-03T12:06:06;7.47;;;4.47;;
23496;SDS011;11925;48.122;11.560;2022-11-03T12:08:35;8.63;;;4.72;;
23496;SDS011;11925;48.122;11.560;2022-11-03T12:11:05;8.45;;;5.40;;
23496;SDS011;11925;48.122;11.560;2022-11-03T12:13:45;8.98;;;4.95;;
23496;SDS011;11925;48.122;11.560;2022-11-03T12:16:30;7.55;;;4.72;;
23496;SDS011;11925;48.122;11.560;2022-11-03T12:22:00;8.32;;;4.93;;
23496;SDS011;11925;48.122;11.560;2022-11-03T12:24:44;9.75;;;4.82;;
23496;SDS011;11925;48.122;11.560;2022-11-03T12:30:13;9.05;;;5.45;;
23496;SDS011;11925;48.122;11.560;2022-11-03T12:32:43;8.95;;;4.70;;
23496;SDS011;11925;48.122;11.560;2022-11-03T12:35:12;7.07;;;5.28;;
23496;SDS011;11925;48.122;11.560;2022-11-03T12:37:40;8.63;;;5.13;;
23496;SDS011;11925;48.122;11.560;2022-11-03T12:40:10;6.10;;;4.47;;
23496;SDS011;11925;48.122;11.560;2022-11-03T12:42:41;7.72;;;4.82;;
23496;SDS011;11925;48.122;11.560;2022-11-03T12:45:09;9.57;;;4.60;;
23496;SDS011;11925;48.122;11.560;2022-11-03T12:47:39;6.03;;;4.18;;
23496;SDS011;11925;48.122;11.560;2022-11-03T12:50:08;8.23;;;4.55;;
23496;SDS011;11925;48.122;11.560;2022-11-03T12:52:36;7.95;;;4.95;;
23496;SDS011;11925;48.122;11.560;2022-11-03T12:55:05;9.10;;;5.57;;
23496;SDS011;11925;48.122;11.560;2022-11-03T12:57:34;9.20;;;4.85;;
23496;SDS011;11925;48.122;11.560;2022-11-03T13:00:04;7.25;;;4.43;;
23496;SDS011;11925;48.122;11.560;2022-11-03T13:02:34;9.25;;;5.10;;
23496;SDS011;11925;48.122;11.560;2022-11-03T13:05:03;8.63;;;5.05;;
23496;SDS011;11925;48.122;11.560;2022-11-03T13:07:32;9.75;;;4.53;;
23496;SDS011;11925;48.122;11.560;2022-11-03T13:10:00;8.40;;;4.93;;
23496;SDS011;11925;48.122;11.560;2022-11-03T13:12:30;9.20;;;5.25;;
23496;SDS011;11925;48.122;11.560;2022-11-03T13:14:58;7.82;;;4.70;;
23496;SDS011;11925;48.122;11.560;2022-11-03T13:17:29;9.43;;;5.40;;
23496;SDS011;11925;48.122;11.560;2022-11-03T13:20:17;9.82;;;5.07;;
23496;SDS011;11925;48.122;11.560;2022-11-03T13:22:46;9.90;;;5.68;;
23496;SDS011;11925;48.122;11.560;2022-11-03T13:25:14;8.00;;;5.18;;
23496;SDS011;11925;48.122;11.560;2022-11-03T13:27:43;10.10;;;5.00;;
23496;SDS011;11925;48.122;11.560;2022-11-03T13:30:11;7.32;;;4.72;;
23496;SDS011;11925;48.122;11.560;2022-11-03T13:32:41;9.80;;;5.30;;
23496;SDS011;11925;48.122;11.560;2022-11-03T13:35:09;8.98;;;4.78;;
23496;SDS011;11925;48.122;11.560;2022-11-03T13:37:39;7.95;;;5.05;;
23496;SDS011;11925;48.122;11.560;2022-11-03T13:40:08;8.50;;;5.22;;
23496;SDS011;11925;48.122;11.560;2022-11-03T13:42:58;10.65;;;5.00;;
23496;SDS011;11925;48.122;11.560;2022-11-03T13:45:26;7.47;;;4.93;;
23496;SDS011;11925;48.122;11.560;2022-11-03T13:47:56;9.45;;;5.22;;
23496;SDS011;11925;48.122;11.560;2022-11-03T13:50:44;7.97;;;5.03;;
23496;SDS011;11925;48.122;11.560;2022-11-03T13:53:16;8.05;;;5.50;;
23496;SDS011;11925;48.122;11.560;2022-11-03T13:56:05;10.48;;;5.57;;
23496;SDS011;11925;48.122;11.560;2022-11-03T13:58:40;8.70;;;5.20;;
23496;SDS011;11925;48.122;11.560;2022-11-03T14:01:28;9.93;;;5.53;;
23496;SDS011;11925;48.122;11.560;2022-11-03T14:03:58;8.93;;;5.28;;
23496;SDS011;11925;48.122;11.560;2022-11-03T14:06:47;8.70;;;5.53;;
23496;SDS011;11925;48.122;11.560;2022-11-03T14:09:15;9.63;;;6.28;;
23496;SDS011;11925;48.122;11.560;2022-11-03T14:11:43;11.93;;;5.85;;
23496;SDS011;11925;48.122;11.560;2022-11-03T14:14:29;9.13;;;6.15;;
23496;SDS011;11925;48.122;11.560;2022-11-03T14:16:57;8.07;;;5.65;;
23496;SDS011;11925;48.122;11.560;2022-11-03T14:19:27;10.25;;;5.60;;
23496;SDS011;11925;48.122;11.560;2022-11-03T14:22:07;9.93;;;6.17;;
23496;SDS011;11925;48.122;11.560;2022-11-03T14:24:35;9.75;;;5.93;;
23496;SDS011;11925;48.122;11.560;2022-11-03T14:27:03;10.68;;;5.65;;
23496;SDS011;11925;48.122;11.560;2022-11-03T14:29:31;10.15;;;5.90;;
23496;SDS011;11925;48.122;11.560;2022-11-03T14:32:00;10.20;;;6.00;;
23496;SDS011;11925;48.122;11.560;2022-11-03T14:34:29;8.95;;;6.30;;
23496;SDS011;11925;48.122;11.560;2022-11-03T14:36:58;10.23;;;5.65;;
23496;SDS011;11925;48.122;11.560;2022-11-03T14:39:26;10.00;;;5.78;;
23496;SDS011;11925;48.122;11.560;2022-11-03T14:41:55;9.13;;;6.30;;
23496;SDS011;11925;48.122;11.560;2022-11-03T14:44:29;9.85;;;5.90;;
23496;SDS011;11925;48.122;11.560;2022-11-03T14:46:57;9.38;;;6.18;;
23496;SDS011;11925;48.122;11.560;2022-11-03T14:49:26;7.70;;;6.10;;
23496;SDS011;11925;48.122;11.560;2022-11-03T14:51:57;9.63;;;6.13;;
23496;SDS011;11925;48.122;11.560;2022-11-03T14:54:27;10.30;;;6.50;;
23496;SDS011;11925;48.122;11.560;2022-11-03T14:56:56;10.02;;;6.85;;
23496;SDS011;11925;48.122;11.560;2022-11-03T14:59:25;9.02;;;6.18;;
23496;SDS011;11925;48.122;11.560;2022-11-03T15:01:53;10.80;;;6.90;;
23496;SDS011;11925;48.122;11.560;2022-11-03T15:04:22;9.00;;;6.70;;
23496;SDS011;11925;48.122;11.560;2022-11-03T15:06:51;7.68;;;6.55;;
23496;SDS011;11925;48.122;11.560;2022-11-03T15:09:21;9.02;;;6.32;;
23496;SDS011;11925;48.122;11.560;2022-11-03T15:11:49;10.80;;;6.70;;
23496;SDS011;11925;48.122;11.560;2022-11-03T15:14:17;11.02;;;6.75;;
23496;SDS011;11925;48.122;11.560;2022-11-03T15:16:45;11.30;;;6.93;;
23496;SDS011;11925;48.122;11.560;2022-11-03T15:19:14;10.95;;;7.63;;
23496;SDS011;11925;48.122;11.560;2022-11-03T15:21:43;18.17;;;10.38;;
23496;SDS011;11925;48.122;11.560;2022-11-03T15:24:11;131.88;;;81.80;;
23496;SDS011;11925;48.122;11.560;2022-11-03T15:27:01;135.00;;;85.93;;
23496;SDS011;11925;48.122;11.560;2022-11-03T15:29:30;167.80;;;108.40;;
23496;SDS011;11925;48.122;11.560;2022-11-03T15:31:59;241.27;;;160.75;;
23496;SDS011;11925;48.122;11.560;2022-11-03T15:34:27;169.60;;;99.32;;
23496;SDS011;11925;48.122;11.560;2022-11-03T15:36:56;80.30;;;47.55;;
23496;SDS011;11925;48.122;11.560;2022-11-03T15:39:24;78.50;;;45.22;;